Andalusia, Alabama
Current Conditions -  °F | °C
As of 7:56 PM on Sunday 21 Dec 2014 (Local Time) from K79J Reporting Station
Haze Haze  
Wind Chill: 14°   Ceiling: 400
Heat Index: 14°   Visibility: 3mi
Dew Point: 12°   Wind: 5mph
Humidity: 87%   Direction: 130°SE
Pressure: 30.03"   Gusts: NA
Location:  31.32°N, 86.49°W
Report Text: K79J 220156Z AUTO 13004KT 3SM BR OVC004 14/12 A3003 RMK AO2 SLP168 T01390117
Loading
Personal Weather Stations






























Interactive Weather Map New forecast layout! Learn more

10-Day Weather Forecast

Advertisements
Track Severe Weather on mobile